Time;durP1;ratioP1;P1;durP2;ratioP2;P2;SDS_P1;SDS_P2;PMS_P1;PMS_P2;Temp;Humidity;BMP_temperature;BMP_pressure;BME280_temperature;BME280_humidity;BME280_pressure;Samples;Min_cycle;Max_cycle;Signal;HPM_P1;HPM_P2
2022/05/05 00:00:00;;;;;;;24.90;17.58;;;12.60;99.90;;;;;;5091996;27;20109;-64
2022/05/05 00:02:27;;;;;;;22.45;17.95;;;12.60;99.90;;;;;;5088516;28;20123;-64
2022/05/05 00:04:55;;;;;;;23.13;17.33;;;12.60;99.90;;;;;;5088036;28;20453;-64
2022/05/05 00:07:22;;;;;;;21.30;16.35;;;12.60;99.90;;;;;;5097912;28;20035;-64
2022/05/05 00:09:50;;;;;;;23.75;17.30;;;12.60;99.90;;;;;;5121076;28;20107;-64
2022/05/05 00:15:05;;;;;;;22.30;17.52;;;12.60;99.90;;;;;;5093297;28;20060;-65
2022/05/05 00:17:34;;;;;;;21.88;16.90;;;12.60;99.90;;;;;;5093830;28;20066;-64
2022/05/05 00:20:01;;;;;;;24.15;16.73;;;12.60;99.90;;;;;;5090283;28;20135;-64
2022/05/05 00:22:29;;;;;;;21.25;17.20;;;12.60;99.90;;;;;;5099877;28;20043;-64
2022/05/05 00:24:57;;;;;;;19.73;15.85;;;12.60;99.90;;;;;;5104589;28;20486;-64
2022/05/05 00:27:24;;;;;;;20.05;16.42;;;12.60;99.90;;;;;;5103644;28;20566;-64
2022/05/05 00:29:51;;;;;;;22.52;16.80;;;12.60;99.90;;;;;;5105799;28;20470;-65
2022/05/05 00:32:19;;;;;;;19.15;15.98;;;12.60;99.90;;;;;;5092954;28;20075;-64
2022/05/05 00:34:47;;;;;;;17.85;14.77;;;12.60;99.90;;;;;;5108123;28;20169;-65
2022/05/05 00:37:14;;;;;;;21.00;15.82;;;12.60;99.90;;;;;;5104234;28;20082;-66
2022/05/05 00:39:41;;;;;;;21.02;16.67;;;12.50;99.90;;;;;;5102557;28;20513;-65
2022/05/05 00:42:11;;;;;;;19.30;15.25;;;12.50;99.90;;;;;;5107154;28;20115;-65
2022/05/05 00:44:39;;;;;;;24.02;17.48;;;12.50;99.90;;;;;;5098054;28;20597;-65
2022/05/05 00:47:06;;;;;;;19.88;15.60;;;12.50;99.90;;;;;;5099694;28;20102;-65
2022/05/05 00:49:33;;;;;;;19.42;14.82;;;12.40;99.90;;;;;;5104085;28;20139;-65
2022/05/05 00:52:01;;;;;;;17.25;13.85;;;12.50;99.90;;;;;;5105501;28;20108;-65
2022/05/05 00:54:28;;;;;;;18.13;14.45;;;12.40;99.90;;;;;;5097383;28;20454;-65
2022/05/05 00:56:55;;;;;;;16.33;13.95;;;12.40;99.90;;;;;;5109867;28;20067;-65
2022/05/05 00:59:23;;;;;;;14.77;12.45;;;12.40;99.90;;;;;;5111023;27;20494;-66
2022/05/05 01:01:50;;;;;;;16.27;12.52;;;12.30;99.90;;;;;;5100636;28;20502;-65
2022/05/05 01:04:19;;;;;;;17.70;13.63;;;12.30;99.90;;;;;;5090550;28;20585;-65
2022/05/05 01:06:47;;;;;;;17.30;13.05;;;12.20;99.90;;;;;;5105078;28;20051;-65
2022/05/05 01:09:14;;;;;;;17.23;12.38;;;12.20;99.90;;;;;;5092300;28;20131;-65
2022/05/05 01:11:41;;;;;;;17.08;12.90;;;12.20;99.90;;;;;;5107025;28;20085;-65
2022/05/05 01:14:09;;;;;;;14.25;12.48;;;12.20;99.90;;;;;;5111408;28;20143;-65
2022/05/05 01:16:36;;;;;;;17.42;11.65;;;12.20;99.90;;;;;;5107928;28;20400;-65
2022/05/05 01:19:03;;;;;;;15.57;13.00;;;12.20;99.90;;;;;;5110759;28;20052;-65
2022/05/05 01:21:31;;;;;;;29.05;18.25;;;12.20;99.90;;;;;;5101909;28;20125;-65
2022/05/05 01:23:58;;;;;;;21.13;15.82;;;12.10;99.90;;;;;;5107767;28;20055;-65
2022/05/05 01:29:12;;;;;;;16.20;12.88;;;12.00;99.90;;;;;;5107843;28;20084;-65
2022/05/05 01:31:40;;;;;;;18.90;14.27;;;12.00;99.90;;;;;;5089028;28;20044;-65
2022/05/05 01:34:07;;;;;;;20.55;13.60;;;12.00;99.90;;;;;;5097378;28;20075;-65
2022/05/05 01:36:35;;;;;;;20.27;14.77;;;12.00;99.90;;;;;;5102166;28;20135;-66
2022/05/05 01:39:03;;;;;;;17.67;13.50;;;12.00;99.90;;;;;;5103940;28;20528;-65
2022/05/05 01:41:31;;;;;;;22.33;15.32;;;12.00;99.90;;;;;;5097602;28;20417;-64
2022/05/05 01:43:58;;;;;;;21.85;16.20;;;12.00;99.90;;;;;;5108947;28;20487;-64
2022/05/05 01:46:25;;;;;;;20.13;16.42;;;11.90;99.90;;;;;;5108090;28;20040;-64
2022/05/05 01:48:53;;;;;;;20.42;16.52;;;11.90;99.90;;;;;;5102571;28;20146;-64
2022/05/05 01:51:20;;;;;;;20.98;15.75;;;11.90;99.90;;;;;;5099546;28;20249;-65
2022/05/05 01:53:48;;;;;;;20.45;16.02;;;12.00;99.90;;;;;;5109440;28;20572;-65
2022/05/05 01:56:15;;;;;;;21.50;15.88;;;12.00;99.90;;;;;;5103341;28;20040;-65
2022/05/05 01:58:44;;;;;;;19.58;15.68;;;12.00;99.90;;;;;;5109961;27;20082;-66
2022/05/05 02:01:12;;;;;;;21.52;16.40;;;12.00;99.90;;;;;;5097840;28;20052;-65
2022/05/05 02:03:40;;;;;;;22.90;17.83;;;12.00;99.90;;;;;;5090054;28;20445;-65
2022/05/05 02:06:08;;;;;;;22.23;16.75;;;12.00;99.90;;;;;;5089696;28;20499;-65
2022/05/05 02:08:36;;;;;;;21.70;17.60;;;12.00;99.90;;;;;;5090146;28;20184;-65
2022/05/05 02:11:04;;;;;;;22.00;15.88;;;12.00;99.90;;;;;;5097365;28;20059;-65
2022/05/05 02:13:31;;;;;;;22.48;16.83;;;12.00;99.90;;;;;;5107515;28;20494;-65
2022/05/05 02:15:59;;;;;;;21.42;17.63;;;12.00;99.90;;;;;;5109507;28;20559;-65
2022/05/05 02:18:27;;;;;;;18.67;16.08;;;12.00;99.90;;;;;;5110029;28;20403;-65
2022/05/05 02:20:54;;;;;;;26.50;19.00;;;12.00;99.90;;;;;;5107520;28;20055;-65
2022/05/05 02:23:22;;;;;;;25.52;19.10;;;12.00;99.90;;;;;;5109858;28;20135;-65
2022/05/05 02:25:50;;;;;;;28.55;21.25;;;12.00;99.90;;;;;;5096633;28;20521;-66
2022/05/05 02:28:17;;;;;;;23.52;18.42;;;12.00;99.90;;;;;;5097311;28;20043;-65
2022/05/05 02:30:45;;;;;;;22.58;17.30;;;12.00;99.90;;;;;;5097157;28;20051;-64
2022/05/05 02:33:12;;;;;;;23.75;17.98;;;12.10;99.90;;;;;;5103040;28;20151;-66
2022/05/05 02:35:40;;;;;;;22.88;18.52;;;12.00;99.90;;;;;;5102695;28;20136;-64
2022/05/05 02:40:53;;;;;;;23.60;17.20;;;12.00;99.90;;;;;;5097962;28;20332;-65
2022/05/05 02:43:20;;;;;;;27.58;21.77;;;12.00;99.90;;;;;;5106656;28;20043;-65
2022/05/05 02:45:49;;;;;;;23.48;17.85;;;12.00;99.90;;;;;;5102587;28;20047;-65
2022/05/05 02:48:16;;;;;;;22.88;17.77;;;12.00;99.90;;;;;;5109583;28;20483;-64
2022/05/05 02:50:43;;;;;;;20.27;16.90;;;12.00;99.90;;;;;;5106888;28;20062;-64
2022/05/05 02:55:56;;;;;;;25.90;19.52;;;12.00;99.90;;;;;;5099206;28;20471;-64
2022/05/05 02:58:23;;;;;;;28.67;20.98;;;12.00;99.90;;;;;;5111257;27;20040;-64
2022/05/05 03:00:51;;;;;;;29.55;22.15;;;12.00;99.90;;;;;;5098302;28;20093;-64
2022/05/05 03:03:18;;;;;;;34.35;23.35;;;12.00;99.90;;;;;;5096875;28;20105;-64
2022/05/05 03:05:46;;;;;;;25.98;19.23;;;12.00;99.90;;;;;;5089139;28;20044;-65
2022/05/05 03:08:13;;;;;;;27.42;21.42;;;12.00;99.90;;;;;;5085886;28;20044;-64
2022/05/05 03:10:41;;;;;;;31.20;23.88;;;12.00;99.90;;;;;;5085652;28;20044;-64
2022/05/05 03:13:08;;;;;;;33.40;25.02;;;12.00;99.90;;;;;;5103161;28;20482;-64
2022/05/05 03:15:35;;;;;;;30.55;23.33;;;12.10;99.90;;;;;;5104288;28;20634;-64
2022/05/05 03:18:03;;;;;;;28.10;20.45;;;12.00;99.90;;;;;;5093991;28;20509;-64
2022/05/05 03:20:30;;;;;;;26.35;20.13;;;12.00;99.90;;;;;;5103191;28;20050;-64
2022/05/05 03:22:58;;;;;;;26.40;20.38;;;12.00;99.90;;;;;;5095566;28;20506;-65
2022/05/05 03:25:25;;;;;;;26.38;18.85;;;12.00;99.90;;;;;;5107990;28;20067;-65
2022/05/05 03:27:53;;;;;;;28.63;20.25;;;12.00;99.90;;;;;;5107516;28;20406;-64
2022/05/05 03:30:20;;;;;;;27.95;21.33;;;12.00;99.90;;;;;;5108750;28;20057;-64
2022/05/05 03:32:47;;;;;;;29.83;23.35;;;12.00;99.90;;;;;;5078149;28;20059;-64
2022/05/05 03:35:15;;;;;;;28.65;22.17;;;12.00;99.90;;;;;;5098914;28;20040;-64
2022/05/05 03:37:42;;;;;;;26.75;19.85;;;12.00;99.90;;;;;;5107091;28;20417;-66
2022/05/05 03:40:10;;;;;;;32.25;24.17;;;12.00;99.90;;;;;;5104589;28;20439;-64
2022/05/05 03:42:37;;;;;;;29.60;22.85;;;12.00;99.90;;;;;;5103983;28;20056;-64
2022/05/05 03:45:05;;;;;;;32.55;22.73;;;12.00;99.90;;;;;;5094207;28;20134;-65
2022/05/05 03:47:33;;;;;;;34.25;26.70;;;12.00;99.90;;;;;;5103547;28;20039;-65
2022/05/05 03:50:00;;;;;;;32.92;23.30;;;12.00;99.90;;;;;;5106404;28;20043;-66
2022/05/05 03:52:27;;;;;;;31.90;25.27;;;12.00;99.90;;;;;;5108165;28;20048;-65
2022/05/05 03:54:54;;;;;;;35.65;25.42;;;12.00;99.90;;;;;;5106781;28;20067;-65
2022/05/05 03:57:22;;;;;;;29.27;21.63;;;12.10;99.90;;;;;;5103704;28;20043;-64
2022/05/05 03:59:49;;;;;;;28.40;19.65;;;12.10;99.90;;;;;;5106318;27;20043;-65
2022/05/05 04:02:17;;;;;;;23.73;17.77;;;12.10;99.90;;;;;;5076605;28;20482;-64
2022/05/05 04:04:44;;;;;;;21.70;17.10;;;12.10;99.90;;;;;;5087588;28;20545;-66
2022/05/05 04:07:11;;;;;;;24.08;17.58;;;12.10;99.90;;;;;;5101525;28;20105;-64
2022/05/05 04:09:39;;;;;;;25.65;19.42;;;12.10;99.90;;;;;;5093222;28;20436;-64
2022/05/05 04:12:07;;;;;;;23.98;19.48;;;12.10;99.90;;;;;;5097456;28;20124;-64
2022/05/05 04:14:34;;;;;;;25.67;19.77;;;12.10;99.90;;;;;;5104107;28;20040;-66
2022/05/05 04:17:01;;;;;;;28.73;20.77;;;12.20;99.90;;;;;;5105359;28;20051;-64
2022/05/05 04:19:29;;;;;;;23.10;18.73;;;12.20;99.90;;;;;;5106652;28;20142;-65
2022/05/05 04:21:56;;;;;;;24.48;18.67;;;12.30;99.90;;;;;;5106712;28;20215;-64
2022/05/05 04:24:23;;;;;;;24.38;19.95;;;12.20;99.90;;;;;;5106922;28;20058;-65
2022/05/05 04:26:51;;;;;;;23.40;17.52;;;12.30;99.90;;;;;;5108253;28;20101;-65
2022/05/05 04:29:19;;;;;;;25.38;19.48;;;12.30;99.90;;;;;;5105423;28;20077;-64
2022/05/05 04:31:50;;;;;;;23.48;18.20;;;12.30;99.90;;;;;;5111302;28;20071;-64
2022/05/05 04:34:17;;;;;;;25.52;19.38;;;12.30;99.90;;;;;;5097747;28;20054;-64
2022/05/05 04:36:45;;;;;;;24.70;18.90;;;12.40;99.90;;;;;;5106037;28;20502;-65
2022/05/05 04:39:12;;;;;;;20.52;16.75;;;12.40;99.90;;;;;;5111009;28;20105;-65
2022/05/05 04:41:39;;;;;;;25.70;19.92;;;12.50;99.90;;;;;;5096435;28;20142;-65
2022/05/05 04:44:07;;;;;;;28.42;20.15;;;12.50;99.90;;;;;;5094795;28;20044;-66
2022/05/05 04:46:34;;;;;;;21.33;17.33;;;12.60;99.90;;;;;;5097668;28;20479;-66
2022/05/05 04:49:01;;;;;;;29.48;22.25;;;12.70;99.90;;;;;;5102168;28;20040;-65
2022/05/05 04:51:28;;;;;;;36.15;22.63;;;12.70;99.90;;;;;;5104289;27;20432;-65
2022/05/05 04:53:56;;;;;;;30.58;21.73;;;12.80;99.90;;;;;;5091698;28;20050;-65
2022/05/05 04:56:23;;;;;;;22.00;17.55;;;12.80;99.90;;;;;;5100106;28;20059;-65
2022/05/05 04:58:50;;;;;;;28.25;20.45;;;12.90;99.90;;;;;;5096302;28;20040;-65
2022/05/05 05:01:18;;;;;;;28.35;20.90;;;12.90;99.90;;;;;;5099188;28;20481;-65
2022/05/05 05:03:45;;;;;;;30.05;22.80;;;12.90;99.90;;;;;;5106545;28;20059;-66
2022/05/05 05:06:13;;;;;;;29.92;22.83;;;12.90;99.90;;;;;;5094037;28;20097;-66
2022/05/05 05:08:42;;;;;;;30.30;22.77;;;12.90;99.90;;;;;;5095677;28;20350;-65
2022/05/05 05:11:09;;;;;;;26.95;21.77;;;12.90;99.90;;;;;;5101412;28;20137;-65
2022/05/05 05:13:37;;;;;;;31.55;24.95;;;12.80;99.90;;;;;;5112273;28;20048;-65
2022/05/05 05:16:05;;;;;;;31.80;23.75;;;12.90;99.90;;;;;;5095179;28;20031;-65
2022/05/05 05:18:53;;;;;;;31.05;23.00;;;12.90;99.90;;;;;;5104610;28;20528;-65
2022/05/05 05:21:21;;;;;;;30.13;22.40;;;13.00;99.90;;;;;;5100293;28;20131;-65
2022/05/05 05:23:49;;;;;;;35.40;25.02;;;13.10;99.90;;;;;;5111701;28;20092;-66
2022/05/05 05:26:16;;;;;;;32.28;24.63;;;13.10;99.90;;;;;;5106486;28;20131;-64
2022/05/05 05:28:43;;;;;;;30.38;23.70;;;13.10;99.90;;;;;;5098648;28;20052;-64
2022/05/05 05:31:11;;;;;;;30.80;23.42;;;13.20;99.90;;;;;;5095885;28;20451;-64
2022/05/05 05:33:38;;;;;;;29.50;23.88;;;13.20;99.90;;;;;;5102328;28;20048;-64
2022/05/05 05:36:06;;;;;;;29.88;23.90;;;13.30;99.90;;;;;;5097333;28;20039;-64
2022/05/05 05:38:34;;;;;;;31.63;24.90;;;13.30;99.90;;;;;;5116747;27;20072;-64
2022/05/05 05:41:01;;;;;;;31.63;21.75;;;13.30;99.90;;;;;;5102389;27;20044;-64
2022/05/05 05:43:29;;;;;;;31.15;22.38;;;13.30;99.90;;;;;;5095003;28;20079;-64
2022/05/05 05:45:56;;;;;;;28.05;23.05;;;13.30;99.90;;;;;;5093321;28;20075;-65
2022/05/05 05:48:23;;;;;;;27.35;21.10;;;13.30;99.90;;;;;;5093524;28;20063;-65
2022/05/05 05:50:51;;;;;;;26.40;21.15;;;13.40;99.90;;;;;;5089863;28;20754;-65
2022/05/05 05:53:18;;;;;;;28.92;22.35;;;13.50;99.90;;;;;;5097995;28;20126;-65
2022/05/05 05:55:45;;;;;;;30.63;23.02;;;13.50;99.90;;;;;;5102864;28;20072;-65
2022/05/05 05:58:13;;;;;;;31.48;24.17;;;13.60;99.90;;;;;;5103165;27;20039;-65
2022/05/05 06:00:40;;;;;;;34.15;25.95;;;13.60;99.90;;;;;;5095556;28;20537;-65
2022/05/05 06:05:53;;;;;;;36.13;25.98;;;13.30;99.90;;;;;;5098109;28;20118;-65
2022/05/05 06:08:21;;;;;;;32.85;24.48;;;13.50;99.90;;;;;;5101615;28;20471;-65
2022/05/05 06:10:48;;;;;;;30.20;23.33;;;13.50;99.90;;;;;;5107959;28;20040;-65
2022/05/05 06:13:20;;;;;;;35.45;26.52;;;13.70;99.90;;;;;;5107780;28;20043;-65
2022/05/05 06:15:47;;;;;;;34.92;26.40;;;13.60;99.90;;;;;;5105361;28;20526;-65
2022/05/05 06:18:14;;;;;;;34.72;25.75;;;13.50;99.90;;;;;;5104886;28;20073;-66
2022/05/05 06:20:41;;;;;;;32.60;24.73;;;13.50;99.90;;;;;;5103728;28;20122;-64
2022/05/05 06:23:09;;;;;;;35.60;25.60;;;13.60;99.90;;;;;;5108405;28;20039;-65
2022/05/05 06:25:36;;;;;;;37.25;27.05;;;13.50;99.90;;;;;;5101346;28;20048;-64
2022/05/05 06:28:04;;;;;;;35.80;25.05;;;13.50;99.90;;;;;;5106158;28;20063;-65
2022/05/05 06:30:31;;;;;;;35.70;26.13;;;13.50;99.90;;;;;;5104086;28;20443;-64
2022/05/05 06:32:59;;;;;;;41.10;27.33;;;13.50;99.90;;;;;;5109828;28;20525;-66
2022/05/05 06:35:26;;;;;;;37.35;26.60;;;13.50;99.90;;;;;;5106383;28;20161;-65
2022/05/05 06:37:53;;;;;;;34.60;25.50;;;13.60;99.90;;;;;;5105873;28;20536;-65
2022/05/05 06:40:21;;;;;;;38.55;26.00;;;13.70;99.90;;;;;;5108751;28;20050;-65
2022/05/05 06:42:48;;;;;;;34.63;25.13;;;13.80;99.90;;;;;;5104443;28;20047;-65
2022/05/05 06:45:16;;;;;;;35.60;26.23;;;13.90;99.90;;;;;;5106810;28;20055;-65
2022/05/05 06:47:43;;;;;;;34.60;25.83;;;13.90;99.90;;;;;;5104709;28;20040;-65
2022/05/05 06:50:11;;;;;;;37.22;25.90;;;14.00;99.90;;;;;;5106027;28;20123;-65
2022/05/05 06:52:39;;;;;;;33.22;24.13;;;14.20;99.90;;;;;;5105679;28;20056;-65
2022/05/05 06:55:08;;;;;;;33.75;23.88;;;14.40;99.90;;;;;;5108193;28;20058;-65
2022/05/05 06:57:36;;;;;;;35.17;25.23;;;14.60;99.90;;;;;;5110220;27;20067;-65
2022/05/05 07:00:04;;;;;;;34.90;24.33;;;14.80;99.90;;;;;;5090808;28;20135;-65
2022/05/05 07:02:31;;;;;;;32.90;23.73;;;14.90;99.90;;;;;;5106821;28;20515;-65
2022/05/05 07:07:45;;;;;;;36.03;24.75;;;15.00;99.90;;;;;;5101474;28;20046;-64
2022/05/05 07:13:03;;;;;;;36.65;22.77;;;15.20;99.90;;;;;;5098985;28;20176;-65
2022/05/05 07:15:31;;;;;;;33.42;23.17;;;15.20;99.90;;;;;;5102372;28;20799;-65
2022/05/05 07:17:59;;;;;;;36.47;24.65;;;15.20;99.90;;;;;;5097841;28;20564;-65
2022/05/05 07:20:27;;;;;;;36.15;25.15;;;15.40;99.90;;;;;;5108213;28;20552;-64
2022/05/05 07:22:56;;;;;;;30.65;21.50;;;15.50;99.90;;;;;;5096779;28;20048;-64
2022/05/05 07:25:25;;;;;;;32.17;21.83;;;15.80;99.90;;;;;;5106895;28;20042;-65
2022/05/05 07:27:53;;;;;;;32.80;23.00;;;16.00;99.90;;;;;;5108599;28;20036;-64
2022/05/05 07:30:20;;;;;;;35.80;24.73;;;16.00;99.90;;;;;;5108207;28;20058;-65
2022/05/05 07:32:48;;;;;;;33.60;23.20;;;16.20;99.90;;;;;;5096072;28;20386;-65
2022/05/05 07:35:15;;;;;;;32.95;22.60;;;16.40;99.90;;;;;;5100579;28;20432;-65
2022/05/05 07:37:43;;;;;;;36.28;24.38;;;16.60;99.90;;;;;;5102894;28;20072;-64
2022/05/05 07:40:10;;;;;;;37.90;24.95;;;16.90;99.90;;;;;;5098868;28;20078;-65
2022/05/05 07:42:38;;;;;;;31.08;22.98;;;16.90;99.90;;;;;;5102969;28;20079;-65
2022/05/05 07:45:05;;;;;;;33.00;22.42;;;16.90;99.90;;;;;;5105107;28;20151;-64
2022/05/05 07:47:36;;;;;;;32.97;22.90;;;16.80;99.90;;;;;;5098479;28;20358;-65
2022/05/05 07:50:04;;;;;;;32.38;22.00;;;17.20;99.90;;;;;;5086353;28;20052;-65
2022/05/05 07:52:32;;;;;;;30.02;21.30;;;17.30;99.90;;;;;;5105000;28;20039;-65
2022/05/05 07:54:59;;;;;;;28.52;21.70;;;17.40;99.90;;;;;;5098454;28;20050;-65
2022/05/05 07:57:26;;;;;;;28.95;19.95;;;17.40;99.90;;;;;;5101573;28;20463;-65
2022/05/05 07:59:54;;;;;;;24.25;18.88;;;17.60;99.90;;;;;;5108077;27;20043;-65
2022/05/05 08:02:21;;;;;;;26.90;20.27;;;17.60;99.90;;;;;;5085216;28;20050;-65
2022/05/05 08:04:48;;;;;;;25.23;19.55;;;17.50;99.90;;;;;;5087764;28;20498;-65
2022/05/05 08:07:16;;;;;;;25.88;20.02;;;17.30;99.90;;;;;;5088345;28;20356;-65
2022/05/05 08:09:43;;;;;;;28.73;19.70;;;17.30;99.90;;;;;;5086472;28;20047;-65
2022/05/05 08:12:28;;;;;;;24.45;18.83;;;17.20;99.90;;;;;;5103688;28;20458;-65
2022/05/05 08:14:56;;;;;;;22.27;17.23;;;17.40;99.90;;;;;;5098485;28;20556;-65
2022/05/05 08:17:23;;;;;;;26.13;19.75;;;17.60;99.90;;;;;;5100989;28;20059;-64
2022/05/05 08:19:51;;;;;;;32.00;23.23;;;17.70;99.90;;;;;;5105875;28;20500;-65
2022/05/05 08:22:19;;;;;;;24.33;17.92;;;17.60;99.90;;;;;;5106146;28;20043;-65
2022/05/05 08:30:17;;;;;;;23.75;17.38;;;17.80;99.90;;;;;;5106808;28;20455;-66
2022/05/05 08:32:45;;;;;;;26.65;19.33;;;18.10;99.90;;;;;;5107229;28;20502;-65
2022/05/05 08:35:12;;;;;;;23.08;16.98;;;18.40;99.90;;;;;;5099852;28;20040;-65
2022/05/05 08:37:39;;;;;;;23.42;17.63;;;18.50;99.90;;;;;;5094844;28;20498;-65
2022/05/05 08:40:08;;;;;;;22.42;17.70;;;18.60;99.90;;;;;;5106624;28;20058;-64
2022/05/05 08:42:36;;;;;;;22.73;16.60;;;18.60;99.90;;;;;;5105910;28;20077;-65
2022/05/05 08:45:04;;;;;;;21.30;15.30;;;18.30;99.90;;;;;;5105510;28;20051;-65
2022/05/05 08:47:32;;;;;;;19.75;15.05;;;18.40;99.90;;;;;;5101860;28;20389;-65
2022/05/05 08:50:01;;;;;;;21.23;14.30;;;18.00;99.90;;;;;;5106657;28;20063;-65
2022/05/05 08:52:40;;;;;;;18.58;13.48;;;18.40;99.90;;;;;;5107609;28;20044;-66
2022/05/05 08:55:11;;;;;;;16.48;12.68;;;18.60;99.90;;;;;;5095249;28;20140;-65
2022/05/05 08:57:39;;;;;;;;;;;19.10;99.90;;;;;;5094717;28;20055;-66
2022/05/05 09:00:07;;;;;;;17.92;14.02;;;19.40;99.90;;;;;;5103327;28;20015;-65
2022/05/05 09:02:35;;;;;;;20.08;15.75;;;19.50;99.90;;;;;;5086612;28;20123;-65
2022/05/05 09:05:05;;;;;;;17.10;13.82;;;19.50;99.90;;;;;;5087621;28;20400;-65
2022/05/05 09:07:53;;;;;;;22.08;14.32;;;19.30;99.90;;;;;;5089216;28;20665;-64
2022/05/05 09:10:21;;;;;;;19.55;15.70;;;19.50;99.90;;;;;;5088765;28;20384;-65
2022/05/05 09:12:59;;;;;;;18.60;14.75;;;19.20;99.90;;;;;;5098277;28;20221;-65
2022/05/05 09:15:40;;;;;;;18.00;15.15;;;19.40;99.90;;;;;;5107105;28;20094;-65
2022/05/05 09:18:11;;;;;;;18.03;13.60;;;19.40;99.90;;;;;;5106126;28;20464;-64
2022/05/05 09:20:39;;;;;;;16.48;12.82;;;19.40;99.90;;;;;;5110374;28;20054;-64
2022/05/05 09:26:38;;;;;;;16.23;13.13;;;20.00;99.90;;;;;;5048599;28;20074;-64
2022/05/05 09:29:20;;;;;;;17.45;14.05;;;20.10;99.90;;;;;;5047569;28;20045;-64
2022/05/05 09:31:50;;;;;;;16.50;13.27;;;19.70;99.90;;;;;;5047064;28;20139;-64
2022/05/05 09:34:18;;;;;;;17.17;13.75;;;19.80;99.90;;;;;;5047640;28;20480;-65
2022/05/05 09:36:47;;;;;;;17.15;13.32;;;19.90;99.90;;;;;;5045396;28;20136;-63
2022/05/05 09:39:14;;;;;;;17.15;13.60;;;19.80;99.90;;;;;;5043676;28;20045;-64
2022/05/05 09:41:46;;;;;;;14.77;11.65;;;19.60;99.90;;;;;;5046956;28;20060;-65
2022/05/05 09:44:16;;;;;;;14.90;11.98;;;20.10;99.90;;;;;;5047693;28;20527;-65
2022/05/05 09:46:44;;;;;;;15.23;12.35;;;20.60;99.90;;;;;;5047860;28;20447;-65
2022/05/05 09:49:17;;;;;;;14.43;11.52;;;20.80;99.90;;;;;;5045594;28;20044;-64
2022/05/05 09:57:39;;;;;;;17.13;12.02;;;20.70;99.90;;;;;;5047334;28;20045;-64
2022/05/05 09:57:40;;;;;;;15.65;10.40;;;21.10;99.90;;;;;;5047439;28;20542;-67
2022/05/05 10:00:25;;;;;;;13.52;9.63;;;21.40;99.90;;;;;;5061545;28;20056;-64
2022/05/05 10:05:52;;;;;;;13.07;9.40;;;21.90;99.90;;;;;;5090359;28;20040;-64
2022/05/05 10:08:23;;;;;;;10.68;8.20;;;22.20;99.90;;;;;;5090248;28;20517;-65
2022/05/05 10:10:52;;;;;;;12.63;9.50;;;22.50;99.90;;;;;;5092291;28;20036;-64
2022/05/05 10:13:20;;;;;;;14.52;10.00;;;22.80;99.90;;;;;;5108020;28;20486;-64
2022/05/05 10:15:49;;;;;;;15.18;10.68;;;23.10;99.90;;;;;;5104632;28;20477;-64
2022/05/05 10:18:29;;;;;;;11.70;10.32;;;23.00;99.90;;;;;;5088176;28;20044;-64
2022/05/05 10:20:58;;;;;;;15.63;12.60;;;22.80;99.90;;;;;;5088682;28;20177;-64
2022/05/05 10:23:41;;;;;;;18.42;13.07;;;23.20;99.90;;;;;;5090459;28;20040;-64
2022/05/05 10:26:10;;;;;;;13.80;10.65;;;23.30;99.90;;;;;;5088125;28;20047;-64
2022/05/05 10:28:47;;;;;;;13.63;10.48;;;23.30;99.90;;;;;;5090252;28;20486;-65
2022/05/05 10:31:30;;;;;;;12.80;10.10;;;23.00;99.90;;;;;;5096384;28;20035;-64
2022/05/05 10:33:57;;;;;;;11.52;8.05;;;22.90;99.90;;;;;;5097443;28;20068;-64
2022/05/05 10:36:25;;;;;;;10.93;7.88;;;22.90;99.90;;;;;;5089051;28;20040;-64
2022/05/05 10:38:52;;;;;;;11.57;8.35;;;22.90;99.90;;;;;;5089810;28;20142;-64
2022/05/05 10:41:39;;;;;;;10.50;7.47;;;23.10;99.90;;;;;;5097918;28;20073;-65
2022/05/05 10:44:24;;;;;;;10.20;7.70;;;23.00;99.90;;;;;;5095860;28;20054;-65
2022/05/05 10:46:53;;;;;;;10.52;7.68;;;23.10;99.90;;;;;;5104811;28;20127;-64
2022/05/05 10:49:42;;;;;;;11.52;8.45;;;23.10;99.90;;;;;;5107422;28;20263;-64
2022/05/05 10:52:10;;;;;;;12.48;6.38;;;23.20;99.90;;;;;;5109403;28;20039;-63
2022/05/05 10:54:42;;;;;;;7.97;6.07;;;23.30;99.90;;;;;;5107876;28;20769;-65
2022/05/05 10:57:29;;;;;;;8.85;6.40;;;23.60;99.90;;;;;;5091674;28;20405;-65
2022/05/05 11:00:07;;;;;;;7.93;6.47;;;23.80;99.90;;;;;;5108068;28;20069;-64
2022/05/05 11:02:35;;;;;;;8.88;6.75;;;23.70;99.90;;;;;;5089419;28;20040;-64
2022/05/05 11:05:28;;;;;;;9.27;7.20;;;24.10;99.90;;;;;;5088123;28;20167;-63
2022/05/05 11:08:14;;;;;;;7.60;6.07;;;23.80;99.90;;;;;;5089034;28;20048;-64
2022/05/05 11:10:41;;;;;;;8.00;6.28;;;24.10;99.90;;;;;;5087751;28;20135;-64
2022/05/05 11:13:47;;;;;;;8.35;6.22;;;24.50;99.90;;;;;;5097820;28;20151;-65
2022/05/05 11:22:11;;;;;;;9.48;5.57;;;25.30;99.90;;;;;;5096822;28;20139;-64
2022/05/05 11:24:45;;;;;;;9.90;4.57;;;25.40;99.90;;;;;;5088086;28;20062;-64
2022/05/05 11:27:24;;;;;;;8.93;3.97;;;25.50;99.90;;;;;;5088332;28;20060;-65
2022/05/05 11:29:56;;;;;;;7.38;3.80;;;25.50;99.90;;;;;;5086071;28;20044;-64
2022/05/05 11:32:33;;;;;;;7.35;4.03;;;26.00;99.90;;;;;;5102052;28;20051;-64
2022/05/05 11:35:02;;;;;;;6.18;4.90;;;26.20;99.90;;;;;;5085466;28;20040;-64
2022/05/05 11:37:30;;;;;;;4.82;4.00;;;26.20;99.90;;;;;;5094595;28;20035;-64
2022/05/05 11:40:02;;;;;;;6.30;4.28;;;25.90;99.90;;;;;;5107930;28;20084;-64
2022/05/05 11:42:29;;;;;;;6.72;4.40;;;26.20;99.90;;;;;;5102173;28;20036;-64
2022/05/05 11:44:56;;;;;;;5.47;4.50;;;26.80;99.90;;;;;;5108093;28;20043;-63
2022/05/05 11:47:24;;;;;;;5.80;4.10;;;26.70;99.90;;;;;;5108040;28;20455;-64
2022/05/05 11:49:52;;;;;;;6.68;4.10;;;27.00;99.90;;;;;;5108180;28;20043;-64
2022/05/05 11:52:22;;;;;;;6.93;3.55;;;26.40;99.90;;;;;;5107050;28;20475;-64
2022/05/05 11:54:53;;;;;;;10.02;4.25;;;26.40;99.90;;;;;;5108363;28;20043;-64
2022/05/05 11:57:39;;;;;;;7.57;4.25;;;26.70;99.90;;;;;;5106804;28;20130;-64
2022/05/05 12:02:57;;;;;;;8.07;5.35;;;26.20;99.90;;;;;;5088220;28;20070;-64
2022/05/05 12:05:25;;;;;;;6.70;5.45;;;25.70;99.90;;;;;;5087670;28;20059;-64
2022/05/05 12:07:53;;;;;;;8.00;5.32;;;25.20;99.90;;;;;;5102857;28;20622;-64
2022/05/05 12:10:24;;;;;;;6.45;5.07;;;25.00;99.90;;;;;;5106643;28;20040;-64
2022/05/05 12:13:01;;;;;;;8.52;5.03;;;24.90;99.90;;;;;;5099003;28;20346;-62
2022/05/05 12:15:29;;;;;;;7.38;5.53;;;24.90;99.90;;;;;;5100456;28;20183;-64
2022/05/05 12:18:00;;;;;;;8.02;4.82;;;24.60;99.90;;;;;;5096391;28;20539;-64
2022/05/05 12:20:29;;;;;;;5.88;4.85;;;24.10;99.90;;;;;;5106859;28;20048;-64
2022/05/05 12:22:59;;;;;;;7.03;4.82;;;24.10;99.90;;;;;;5099255;28;20040;-65
2022/05/05 12:25:27;;;;;;;7.45;5.10;;;24.30;99.90;;;;;;5106733;28;20481;-64
2022/05/05 12:27:58;;;;;;;7.90;5.40;;;24.40;99.90;;;;;;5096411;28;20517;-64
2022/05/05 12:30:35;;;;;;;7.43;4.93;;;24.10;99.90;;;;;;5101836;28;20032;-64
2022/05/05 12:33:04;;;;;;;8.05;4.60;;;24.20;99.90;;;;;;5101997;28;20047;-65
2022/05/05 12:35:42;;;;;;;6.72;4.57;;;24.00;99.90;;;;;;5105650;28;20048;-64
2022/05/05 12:38:13;;;;;;;7.13;5.57;;;24.50;99.90;;;;;;5108483;28;20130;-64
2022/05/05 12:40:42;;;;;;;8.63;5.43;;;24.90;99.90;;;;;;5106024;28;20370;-65
2022/05/05 12:43:11;;;;;;;8.30;5.57;;;25.20;99.90;;;;;;5108876;28;20185;-64
2022/05/05 12:45:38;;;;;;;6.85;4.80;;;24.90;99.90;;;;;;5108126;28;20134;-64
2022/05/05 12:48:08;;;;;;;9.93;4.95;;;25.10;99.90;;;;;;5107644;28;20116;-63
2022/05/05 12:50:41;;;;;;;6.78;4.97;;;25.50;99.90;;;;;;5103385;28;20039;-64
2022/05/05 13:01:30;;;;;;;5.95;4.95;;;24.60;99.90;;;;;;5097421;28;20131;-64
2022/05/05 13:04:01;;;;;;;10.65;4.80;;;24.50;99.90;;;;;;5091967;28;20067;-64
2022/05/05 13:06:30;;;;;;;7.38;4.90;;;24.50;99.90;;;;;;5090342;28;20052;-64
2022/05/05 13:08:58;;;;;;;6.50;4.63;;;24.90;99.90;;;;;;5090691;28;20244;-65
2022/05/05 13:11:26;;;;;;;5.72;4.82;;;25.20;99.90;;;;;;5093315;28;20491;-64
2022/05/05 13:13:53;;;;;;;6.40;5.03;;;25.70;99.90;;;;;;5099256;28;20553;-64
2022/05/05 13:16:27;;;;;;;5.65;4.55;;;26.20;99.90;;;;;;5110163;28;20077;-64
2022/05/05 13:19:01;;;;;;;7.45;4.88;;;27.30;99.90;;;;;;5108308;28;20364;-64
2022/05/05 13:21:29;;;;;;;6.25;4.50;;;27.40;99.90;;;;;;5110741;28;20130;-64
2022/05/05 13:23:57;;;;;;;7.55;4.57;;;28.20;99.90;;;;;;5109681;28;20082;-64
2022/05/05 13:26:25;;;;;;;7.80;4.75;;;29.00;99.90;;;;;;5108496;28;20490;-64
2022/05/05 13:28:53;;;;;;;7.50;4.30;;;29.70;99.90;;;;;;5108605;28;20176;-65
2022/05/05 13:31:20;;;;;;;6.20;3.90;;;30.90;99.90;;;;;;5108845;28;20504;-64